sensor_id;sensor_type;location;lat;lon;timestamp;P1;durP1;ratioP1;P2;durP2;ratioP2
23262;SDS011;11800;49.830;9.922;2022-08-04T00:00:11;0.10;;;0.10;;
23262;SDS011;11800;49.830;9.922;2022-08-04T00:05:04;0.00;;;0.00;;
23262;SDS011;11800;49.830;9.922;2022-08-04T00:10:06;0.10;;;0.10;;
23262;SDS011;11800;49.830;9.922;2022-08-04T00:12:33;0.00;;;0.00;;
23262;SDS011;11800;49.830;9.922;2022-08-04T00:15:02;0.00;;;0.00;;
23262;SDS011;11800;49.830;9.922;2022-08-04T00:17:34;0.10;;;0.10;;
23262;SDS011;11800;49.830;9.922;2022-08-04T00:20:03;0.00;;;0.00;;
23262;SDS011;11800;49.830;9.922;2022-08-04T00:22:30;0.00;;;0.00;;
23262;SDS011;11800;49.830;9.922;2022-08-04T00:25:00;0.00;;;0.00;;
23262;SDS011;11800;49.830;9.922;2022-08-04T00:27:27;0.00;;;0.00;;
23262;SDS011;11800;49.830;9.922;2022-08-04T00:29:54;0.00;;;0.00;;
23262;SDS011;11800;49.830;9.922;2022-08-04T00:32:20;0.10;;;0.10;;
23262;SDS011;11800;49.830;9.922;2022-08-04T00:34:46;0.00;;;0.00;;
23262;SDS011;11800;49.830;9.922;2022-08-04T00:37:13;0.10;;;0.10;;
23262;SDS011;11800;49.830;9.922;2022-08-04T00:39:39;0.10;;;0.10;;
23262;SDS011;11800;49.830;9.922;2022-08-04T00:52:22;0.00;;;0.00;;
23262;SDS011;11800;49.830;9.922;2022-08-04T01:00:02;0.00;;;0.00;;
23262;SDS011;11800;49.830;9.922;2022-08-04T01:02:34;0.08;;;0.08;;
23262;SDS011;11800;49.830;9.922;2022-08-04T01:13:22;0.00;;;0.00;;
23262;SDS011;11800;49.830;9.922;2022-08-04T01:15:39;0.10;;;0.10;;
23262;SDS011;11800;49.830;9.922;2022-08-04T01:18:06;0.10;;;0.10;;
23262;SDS011;11800;49.830;9.922;2022-08-04T01:20:34;0.00;;;0.00;;
23262;SDS011;11800;49.830;9.922;2022-08-04T01:25:48;0.00;;;0.00;;
23262;SDS011;11800;49.830;9.922;2022-08-04T01:29:20;0.00;;;0.00;;
23262;SDS011;11800;49.830;9.922;2022-08-04T01:33:40;0.00;;;0.00;;
23262;SDS011;11800;49.830;9.922;2022-08-04T01:36:06;0.00;;;0.00;;
23262;SDS011;11800;49.830;9.922;2022-08-04T01:38:35;0.00;;;0.00;;
23262;SDS011;11800;49.830;9.922;2022-08-04T01:41:05;0.10;;;0.10;;
23262;SDS011;11800;49.830;9.922;2022-08-04T01:43:32;0.05;;;0.05;;
23262;SDS011;11800;49.830;9.922;2022-08-04T01:45:59;0.10;;;0.10;;
23262;SDS011;11800;49.830;9.922;2022-08-04T01:48:26;0.10;;;0.10;;
23262;SDS011;11800;49.830;9.922;2022-08-04T01:50:52;0.03;;;0.03;;
23262;SDS011;11800;49.830;9.922;2022-08-04T01:53:19;0.10;;;0.10;;
23262;SDS011;11800;49.830;9.922;2022-08-04T01:55:46;0.10;;;0.10;;
23262;SDS011;11800;49.830;9.922;2022-08-04T01:58:16;0.00;;;0.00;;
23262;SDS011;11800;49.830;9.922;2022-08-04T02:00:44;0.10;;;0.10;;
23262;SDS011;11800;49.830;9.922;2022-08-04T02:03:11;0.00;;;0.00;;
23262;SDS011;11800;49.830;9.922;2022-08-04T02:05:38;0.00;;;0.00;;
23262;SDS011;11800;49.830;9.922;2022-08-04T02:13:28;0.03;;;0.03;;
23262;SDS011;11800;49.830;9.922;2022-08-04T02:18:33;0.03;;;0.03;;
23262;SDS011;11800;49.830;9.922;2022-08-04T02:21:06;0.00;;;0.00;;
23262;SDS011;11800;49.830;9.922;2022-08-04T02:26:02;0.00;;;0.00;;
23262;SDS011;11800;49.830;9.922;2022-08-04T02:28:32;0.00;;;0.00;;
23262;SDS011;11800;49.830;9.922;2022-08-04T02:33:41;0.10;;;0.10;;
23262;SDS011;11800;49.830;9.922;2022-08-04T02:36:08;0.00;;;0.00;;
23262;SDS011;11800;49.830;9.922;2022-08-04T02:38:54;0.00;;;0.00;;
23262;SDS011;11800;49.830;9.922;2022-08-04T02:41:24;0.00;;;0.00;;
23262;SDS011;11800;49.830;9.922;2022-08-04T02:43:51;0.10;;;0.10;;
23262;SDS011;11800;49.830;9.922;2022-08-04T02:46:20;0.03;;;0.03;;
23262;SDS011;11800;49.830;9.922;2022-08-04T02:48:47;0.10;;;0.10;;
23262;SDS011;11800;49.830;9.922;2022-08-04T02:51:14;0.00;;;0.00;;
23262;SDS011;11800;49.830;9.922;2022-08-04T02:53:40;0.00;;;0.00;;
23262;SDS011;11800;49.830;9.922;2022-08-04T02:56:07;0.00;;;0.00;;
23262;SDS011;11800;49.830;9.922;2022-08-04T02:58:34;0.10;;;0.10;;
23262;SDS011;11800;49.830;9.922;2022-08-04T03:01:00;0.00;;;0.00;;
23262;SDS011;11800;49.830;9.922;2022-08-04T03:06:18;0.10;;;0.10;;
23262;SDS011;11800;49.830;9.922;2022-08-04T03:37:54;0.03;;;0.03;;
23262;SDS011;11800;49.830;9.922;2022-08-04T03:40:27;0.00;;;0.00;;
23262;SDS011;11800;49.830;9.922;2022-08-04T03:48:19;0.10;;;0.10;;
23262;SDS011;11800;49.830;9.922;2022-08-04T03:50:54;0.00;;;0.00;;
23262;SDS011;11800;49.830;9.922;2022-08-04T03:53:43;0.10;;;0.10;;
23262;SDS011;11800;49.830;9.922;2022-08-04T03:56:22;0.03;;;0.03;;
23262;SDS011;11800;49.830;9.922;2022-08-04T04:11:42;0.00;;;0.00;;
23262;SDS011;11800;49.830;9.922;2022-08-04T04:22:12;0.10;;;0.10;;
23262;SDS011;11800;49.830;9.922;2022-08-04T04:27:29;0.05;;;0.05;;
23262;SDS011;11800;49.830;9.922;2022-08-04T04:30:08;0.00;;;0.00;;
23262;SDS011;11800;49.830;9.922;2022-08-04T04:35:08;0.05;;;0.05;;
23262;SDS011;11800;49.830;9.922;2022-08-04T04:45:23;0.10;;;0.10;;
23262;SDS011;11800;49.830;9.922;2022-08-04T04:58:47;0.10;;;0.10;;
23262;SDS011;11800;49.830;9.922;2022-08-04T05:11:37;0.00;;;0.00;;
23262;SDS011;11800;49.830;9.922;2022-08-04T05:14:20;0.10;;;0.10;;
23262;SDS011;11800;49.830;9.922;2022-08-04T05:21:52;0.10;;;0.10;;
23262;SDS011;11800;49.830;9.922;2022-08-04T05:24:22;0.08;;;0.08;;
23262;SDS011;11800;49.830;9.922;2022-08-04T05:26:52;0.10;;;0.10;;
23262;SDS011;11800;49.830;9.922;2022-08-04T05:29:25;0.00;;;0.00;;
23262;SDS011;11800;49.830;9.922;2022-08-04T05:31:52;0.10;;;0.10;;
23262;SDS011;11800;49.830;9.922;2022-08-04T05:37:08;0.08;;;0.08;;
23262;SDS011;11800;49.830;9.922;2022-08-04T05:39:41;0.10;;;0.10;;
23262;SDS011;11800;49.830;9.922;2022-08-04T05:42:08;0.10;;;0.10;;
23262;SDS011;11800;49.830;9.922;2022-08-04T05:44:35;0.10;;;0.10;;
23262;SDS011;11800;49.830;9.922;2022-08-04T05:47:03;0.10;;;0.10;;
23262;SDS011;11800;49.830;9.922;2022-08-04T05:49:30;0.00;;;0.00;;
23262;SDS011;11800;49.830;9.922;2022-08-04T05:51:58;0.00;;;0.00;;
23262;SDS011;11800;49.830;9.922;2022-08-04T05:54:25;0.00;;;0.00;;
23262;SDS011;11800;49.830;9.922;2022-08-04T05:56:53;0.10;;;0.10;;
23262;SDS011;11800;49.830;9.922;2022-08-04T05:59:20;0.03;;;0.03;;
23262;SDS011;11800;49.830;9.922;2022-08-04T06:01:49;0.10;;;0.10;;
23262;SDS011;11800;49.830;9.922;2022-08-04T06:04:15;0.10;;;0.10;;
23262;SDS011;11800;49.830;9.922;2022-08-04T06:06:43;0.00;;;0.00;;
23262;SDS011;11800;49.830;9.922;2022-08-04T06:09:10;0.00;;;0.00;;
23262;SDS011;11800;49.830;9.922;2022-08-04T06:11:36;0.10;;;0.10;;
23262;SDS011;11800;49.830;9.922;2022-08-04T06:14:04;0.08;;;0.08;;
23262;SDS011;11800;49.830;9.922;2022-08-04T06:16:36;0.00;;;0.00;;
23262;SDS011;11800;49.830;9.922;2022-08-04T06:19:05;0.10;;;0.10;;
23262;SDS011;11800;49.830;9.922;2022-08-04T06:21:31;0.10;;;0.10;;
23262;SDS011;11800;49.830;9.922;2022-08-04T06:23:58;0.10;;;0.10;;
23262;SDS011;11800;49.830;9.922;2022-08-04T06:26:25;0.00;;;0.00;;
23262;SDS011;11800;49.830;9.922;2022-08-04T06:28:52;0.10;;;0.10;;
23262;SDS011;11800;49.830;9.922;2022-08-04T06:31:19;0.10;;;0.10;;
23262;SDS011;11800;49.830;9.922;2022-08-04T06:34:00;0.10;;;0.10;;
23262;SDS011;11800;49.830;9.922;2022-08-04T06:36:28;0.10;;;0.10;;
23262;SDS011;11800;49.830;9.922;2022-08-04T06:38:56;0.10;;;0.10;;
23262;SDS011;11800;49.830;9.922;2022-08-04T06:41:23;0.10;;;0.10;;
23262;SDS011;11800;49.830;9.922;2022-08-04T06:43:49;0.10;;;0.10;;
23262;SDS011;11800;49.830;9.922;2022-08-04T06:46:16;0.00;;;0.00;;
23262;SDS011;11800;49.830;9.922;2022-08-04T06:48:43;0.10;;;0.10;;
23262;SDS011;11800;49.830;9.922;2022-08-04T06:51:10;0.10;;;0.10;;
23262;SDS011;11800;49.830;9.922;2022-08-04T06:53:38;0.10;;;0.10;;
23262;SDS011;11800;49.830;9.922;2022-08-04T06:56:04;0.00;;;0.00;;
23262;SDS011;11800;49.830;9.922;2022-08-04T06:58:31;0.10;;;0.10;;
23262;SDS011;11800;49.830;9.922;2022-08-04T07:00:58;0.00;;;0.00;;
23262;SDS011;11800;49.830;9.922;2022-08-04T07:03:26;0.10;;;0.10;;
23262;SDS011;11800;49.830;9.922;2022-08-04T07:05:52;0.10;;;0.10;;
23262;SDS011;11800;49.830;9.922;2022-08-04T07:08:19;0.00;;;0.00;;
23262;SDS011;11800;49.830;9.922;2022-08-04T07:10:45;0.10;;;0.10;;
23262;SDS011;11800;49.830;9.922;2022-08-04T07:13:12;0.05;;;0.05;;
23262;SDS011;11800;49.830;9.922;2022-08-04T07:15:40;0.10;;;0.10;;
23262;SDS011;11800;49.830;9.922;2022-08-04T07:18:06;0.03;;;0.03;;
23262;SDS011;11800;49.830;9.922;2022-08-04T07:20:32;0.00;;;0.00;;
23262;SDS011;11800;49.830;9.922;2022-08-04T07:22:58;0.00;;;0.00;;
23262;SDS011;11800;49.830;9.922;2022-08-04T07:25:25;0.10;;;0.10;;
23262;SDS011;11800;49.830;9.922;2022-08-04T07:27:52;0.00;;;0.00;;
23262;SDS011;11800;49.830;9.922;2022-08-04T07:30:18;0.10;;;0.10;;
23262;SDS011;11800;49.830;9.922;2022-08-04T07:32:44;0.00;;;0.00;;
23262;SDS011;11800;49.830;9.922;2022-08-04T07:35:10;0.10;;;0.10;;
23262;SDS011;11800;49.830;9.922;2022-08-04T07:37:37;0.10;;;0.10;;
23262;SDS011;11800;49.830;9.922;2022-08-04T07:40:04;0.00;;;0.00;;
23262;SDS011;11800;49.830;9.922;2022-08-04T07:42:30;0.00;;;0.00;;
23262;SDS011;11800;49.830;9.922;2022-08-04T07:44:56;0.08;;;0.08;;
23262;SDS011;11800;49.830;9.922;2022-08-04T07:47:23;0.00;;;0.00;;
23262;SDS011;11800;49.830;9.922;2022-08-04T07:49:49;0.10;;;0.10;;
23262;SDS011;11800;49.830;9.922;2022-08-04T07:52:15;0.03;;;0.03;;
23262;SDS011;11800;49.830;9.922;2022-08-04T07:54:41;0.00;;;0.00;;
23262;SDS011;11800;49.830;9.922;2022-08-04T07:57:08;0.10;;;0.10;;
23262;SDS011;11800;49.830;9.922;2022-08-04T07:59:34;0.03;;;0.03;;
23262;SDS011;11800;49.830;9.922;2022-08-04T08:02:01;0.10;;;0.10;;
23262;SDS011;11800;49.830;9.922;2022-08-04T08:04:27;0.10;;;0.10;;
23262;SDS011;11800;49.830;9.922;2022-08-04T08:06:54;0.10;;;0.10;;
23262;SDS011;11800;49.830;9.922;2022-08-04T08:09:21;0.10;;;0.10;;
23262;SDS011;11800;49.830;9.922;2022-08-04T08:11:48;0.10;;;0.10;;
23262;SDS011;11800;49.830;9.922;2022-08-04T08:14:15;0.05;;;0.05;;
23262;SDS011;11800;49.830;9.922;2022-08-04T08:16:41;0.10;;;0.10;;
23262;SDS011;11800;49.830;9.922;2022-08-04T08:19:08;0.10;;;0.10;;
23262;SDS011;11800;49.830;9.922;2022-08-04T08:21:34;0.10;;;0.10;;
23262;SDS011;11800;49.830;9.922;2022-08-04T08:24:00;0.10;;;0.10;;
23262;SDS011;11800;49.830;9.922;2022-08-04T08:26:26;0.10;;;0.10;;
23262;SDS011;11800;49.830;9.922;2022-08-04T08:28:52;0.10;;;0.10;;
23262;SDS011;11800;49.830;9.922;2022-08-04T08:31:19;0.10;;;0.10;;
23262;SDS011;11800;49.830;9.922;2022-08-04T08:33:45;0.10;;;0.10;;
23262;SDS011;11800;49.830;9.922;2022-08-04T08:41:29;0.00;;;0.00;;
23262;SDS011;11800;49.830;9.922;2022-08-04T09:00:06;0.10;;;0.10;;
23262;SDS011;11800;49.830;9.922;2022-08-04T09:10:13;0.10;;;0.10;;
23262;SDS011;11800;49.830;9.922;2022-08-04T09:12:52;0.10;;;0.10;;
23262;SDS011;11800;49.830;9.922;2022-08-04T09:20:44;0.10;;;0.10;;
23262;SDS011;11800;49.830;9.922;2022-08-04T09:26:22;0.10;;;0.10;;
23262;SDS011;11800;49.830;9.922;2022-08-04T09:28:28;0.10;;;0.10;;
23262;SDS011;11800;49.830;9.922;2022-08-04T09:38:37;0.10;;;0.10;;
23262;SDS011;11800;49.830;9.922;2022-08-04T09:41:15;0.10;;;0.10;;
23262;SDS011;11800;49.830;9.922;2022-08-04T09:46:25;0.10;;;0.10;;
23262;SDS011;11800;49.830;9.922;2022-08-04T09:54:15;0.10;;;0.10;;
23262;SDS011;11800;49.830;9.922;2022-08-04T09:57:07;0.10;;;0.10;;
23262;SDS011;11800;49.830;9.922;2022-08-04T09:59:35;0.10;;;0.10;;
23262;SDS011;11800;49.830;9.922;2022-08-04T10:02:06;0.10;;;0.10;;
23262;SDS011;11800;49.830;9.922;2022-08-04T10:04:32;0.10;;;0.10;;
23262;SDS011;11800;49.830;9.922;2022-08-04T10:09:33;0.10;;;0.10;;
23262;SDS011;11800;49.830;9.922;2022-08-04T10:12:15;0.10;;;;;
23262;SDS011;11800;49.830;9.922;2022-08-04T10:22:38;0.10;;;0.10;;
23262;SDS011;11800;49.830;9.922;2022-08-04T10:27:53;0.20;;;0.20;;
23262;SDS011;11800;49.830;9.922;2022-08-04T10:30:20;0.10;;;0.10;;
23262;SDS011;11800;49.830;9.922;2022-08-04T10:33:03;0.10;;;0.10;;
23262;SDS011;11800;49.830;9.922;2022-08-04T10:35:34;0.10;;;0.10;;
23262;SDS011;11800;49.830;9.922;2022-08-04T10:45:58;0.10;;;0.10;;
23262;SDS011;11800;49.830;9.922;2022-08-04T10:48:32;0.10;;;0.10;;
23262;SDS011;11800;49.830;9.922;2022-08-04T10:51:03;0.10;;;0.10;;
23262;SDS011;11800;49.830;9.922;2022-08-04T10:53:31;0.13;;;0.13;;
23262;SDS011;11800;49.830;9.922;2022-08-04T10:56:17;0.13;;;0.13;;
23262;SDS011;11800;49.830;9.922;2022-08-04T10:58:45;0.10;;;0.10;;
23262;SDS011;11800;49.830;9.922;2022-08-04T11:01:16;0.15;;;0.15;;
23262;SDS011;11800;49.830;9.922;2022-08-04T11:03:47;0.10;;;0.10;;
23262;SDS011;11800;49.830;9.922;2022-08-04T11:06:14;0.20;;;0.20;;
23262;SDS011;11800;49.830;9.922;2022-08-04T11:11:21;0.10;;;0.10;;
23262;SDS011;11800;49.830;9.922;2022-08-04T11:13:59;0.20;;;0.20;;
23262;SDS011;11800;49.830;9.922;2022-08-04T11:16:28;0.15;;;0.15;;
23262;SDS011;11800;49.830;9.922;2022-08-04T11:19:45;0.10;;;0.10;;
23262;SDS011;11800;49.830;9.922;2022-08-04T11:21:46;0.10;;;0.10;;
23262;SDS011;11800;49.830;9.922;2022-08-04T11:24:18;0.10;;;0.10;;
23262;SDS011;11800;49.830;9.922;2022-08-04T11:26:55;0.10;;;0.10;;
23262;SDS011;11800;49.830;9.922;2022-08-04T11:29:38;0.10;;;0.10;;
23262;SDS011;11800;49.830;9.922;2022-08-04T11:32:07;0.10;;;0.10;;
23262;SDS011;11800;49.830;9.922;2022-08-04T11:34:35;0.10;;;0.10;;
23262;SDS011;11800;49.830;9.922;2022-08-04T11:37:22;0.20;;;0.20;;
23262;SDS011;11800;49.830;9.922;2022-08-04T11:40:01;0.20;;;0.20;;
23262;SDS011;11800;49.830;9.922;2022-08-04T11:42:37;0.10;;;0.10;;
23262;SDS011;11800;49.830;9.922;2022-08-04T11:45:12;0.20;;;0.20;;
23262;SDS011;11800;49.830;9.922;2022-08-04T11:47:42;0.20;;;0.20;;
23262;SDS011;11800;49.830;9.922;2022-08-04T11:50:13;0.10;;;0.10;;
23262;SDS011;11800;49.830;9.922;2022-08-04T11:52:44;0.15;;;0.15;;
23262;SDS011;11800;49.830;9.922;2022-08-04T11:55:12;0.15;;;0.15;;
23262;SDS011;11800;49.830;9.922;2022-08-04T11:57:39;0.17;;;0.17;;
23262;SDS011;11800;49.830;9.922;2022-08-04T12:00:07;0.15;;;0.15;;
23262;SDS011;11800;49.830;9.922;2022-08-04T12:05:20;0.10;;;0.10;;
23262;SDS011;11800;49.830;9.922;2022-08-04T12:17:46;0.10;;;0.10;;
23262;SDS011;11800;49.830;9.922;2022-08-04T12:20:15;0.10;;;0.10;;
23262;SDS011;11800;49.830;9.922;2022-08-04T12:22:46;0.10;;;0.10;;
23262;SDS011;11800;49.830;9.922;2022-08-04T12:25:15;0.20;;;0.20;;
23262;SDS011;11800;49.830;9.922;2022-08-04T12:27:50;0.10;;;0.10;;
23262;SDS011;11800;49.830;9.922;2022-08-04T12:30:18;0.20;;;0.20;;
23262;SDS011;11800;49.830;9.922;2022-08-04T12:32:54;0.10;;;0.10;;
23262;SDS011;11800;49.830;9.922;2022-08-04T12:38:02;0.10;;;0.10;;
23262;SDS011;11800;49.830;9.922;2022-08-04T12:40:43;0.20;;;0.20;;
23262;SDS011;11800;49.830;9.922;2022-08-04T12:43:23;0.15;;;0.15;;
23262;SDS011;11800;49.830;9.922;2022-08-04T12:45:55;0.10;;;0.10;;
23262;SDS011;11800;49.830;9.922;2022-08-04T12:48:22;0.20;;;0.20;;
23262;SDS011;11800;49.830;9.922;2022-08-04T12:50:51;0.10;;;0.10;;
23262;SDS011;11800;49.830;9.922;2022-08-04T12:53:18;0.20;;;0.20;;
23262;SDS011;11800;49.830;9.922;2022-08-04T12:55:45;0.20;;;0.20;;
23262;SDS011;11800;49.830;9.922;2022-08-04T12:58:17;0.20;;;0.20;;
23262;SDS011;11800;49.830;9.922;2022-08-04T13:00:45;0.15;;;0.15;;
23262;SDS011;11800;49.830;9.922;2022-08-04T13:03:13;0.17;;;0.17;;
23262;SDS011;11800;49.830;9.922;2022-08-04T13:05:40;0.10;;;0.10;;
23262;SDS011;11800;49.830;9.922;2022-08-04T13:08:07;0.20;;;0.20;;
23262;SDS011;11800;49.830;9.922;2022-08-04T13:10:41;0.17;;;0.17;;
23262;SDS011;11800;49.830;9.922;2022-08-04T13:13:14;0.10;;;0.10;;
23262;SDS011;11800;49.830;9.922;2022-08-04T13:15:40;0.10;;;0.10;;
23262;SDS011;11800;49.830;9.922;2022-08-04T13:18:07;0.15;;;0.15;;
23262;SDS011;11800;49.830;9.922;2022-08-04T13:20:35;0.20;;;0.20;;
23262;SDS011;11800;49.830;9.922;2022-08-04T13:25:34;0.17;;;0.17;;
23262;SDS011;11800;49.830;9.922;2022-08-04T13:28:04;0.20;;;0.20;;
23262;SDS011;11800;49.830;9.922;2022-08-04T13:30:30;0.20;;;0.20;;
23262;SDS011;11800;49.830;9.922;2022-08-04T13:32:58;0.20;;;0.20;;
23262;SDS011;11800;49.830;9.922;2022-08-04T13:35:25;0.13;;;0.13;;
23262;SDS011;11800;49.830;9.922;2022-08-04T13:37:51;0.20;;;0.20;;
23262;SDS011;11800;49.830;9.922;2022-08-04T13:40:20;0.20;;;0.20;;
23262;SDS011;11800;49.830;9.922;2022-08-04T13:42:46;0.20;;;0.20;;
23262;SDS011;11800;49.830;9.922;2022-08-04T13:45:13;0.20;;;0.20;;
23262;SDS011;11800;49.830;9.922;2022-08-04T13:47:40;0.10;;;0.10;;
23262;SDS011;11800;49.830;9.922;2022-08-04T13:52:35;0.20;;;0.20;;
23262;SDS011;11800;49.830;9.922;2022-08-04T13:55:01;0.20;;;0.20;;
23262;SDS011;11800;49.830;9.922;2022-08-04T13:57:31;0.20;;;0.20;;
23262;SDS011;11800;49.830;9.922;2022-08-04T13:59:59;0.20;;;0.20;;
23262;SDS011;11800;49.830;9.922;2022-08-04T14:05:16;0.20;;;0.20;;
23262;SDS011;11800;49.830;9.922;2022-08-04T14:07:45;0.20;;;0.20;;
23262;SDS011;11800;49.830;9.922;2022-08-04T14:10:11;0.30;;;0.30;;
23262;SDS011;11800;49.830;9.922;2022-08-04T14:12:44;0.30;;;0.30;;
23262;SDS011;11800;49.830;9.922;2022-08-04T14:18:30;0.50;;;0.50;;
23262;SDS011;11800;49.830;9.922;2022-08-04T14:23:37;0.50;;;0.50;;
23262;SDS011;11800;49.830;9.922;2022-08-04T14:26:13;0.50;;;0.50;;
23262;SDS011;11800;49.830;9.922;2022-08-04T14:28:39;0.30;;;0.30;;
23262;SDS011;11800;49.830;9.922;2022-08-04T14:33:41;0.60;;;0.60;;
23262;SDS011;11800;49.830;9.922;2022-08-04T14:36:07;0.60;;;0.60;;
23262;SDS011;11800;49.830;9.922;2022-08-04T14:38:53;0.80;;;0.80;;
23262;SDS011;11800;49.830;9.922;2022-08-04T14:41:22;0.80;;;0.80;;
23262;SDS011;11800;49.830;9.922;2022-08-04T14:43:52;0.90;;;0.90;;
23262;SDS011;11800;49.830;9.922;2022-08-04T14:46:19;0.70;;;0.70;;
23262;SDS011;11800;49.830;9.922;2022-08-04T14:49:02;0.60;;;0.60;;
23262;SDS011;11800;49.830;9.922;2022-08-04T14:51:32;0.60;;;0.60;;
23262;SDS011;11800;49.830;9.922;2022-08-04T14:53:58;0.70;;;0.70;;
23262;SDS011;11800;49.830;9.922;2022-08-04T14:56:24;0.40;;;0.40;;
23262;SDS011;11800;49.830;9.922;2022-08-04T14:58:57;0.30;;;0.30;;
23262;SDS011;11800;49.830;9.922;2022-08-04T15:01:24;0.30;;;0.30;;
23262;SDS011;11800;49.830;9.922;2022-08-04T15:03:50;0.20;;;0.20;;
23262;SDS011;11800;49.830;9.922;2022-08-04T15:06:25;0.20;;;0.20;;
23262;SDS011;11800;49.830;9.922;2022-08-04T15:08:52;0.30;;;0.30;;
23262;SDS011;11800;49.830;9.922;2022-08-04T15:11:19;0.20;;;0.20;;
23262;SDS011;11800;49.830;9.922;2022-08-04T15:13:45;0.20;;;0.20;;
23262;SDS011;11800;49.830;9.922;2022-08-04T15:16:11;0.20;;;0.20;;
23262;SDS011;11800;49.830;9.922;2022-08-04T15:18:39;0.20;;;0.20;;
23262;SDS011;11800;49.830;9.922;2022-08-04T15:21:06;0.20;;;0.20;;
23262;SDS011;11800;49.830;9.922;2022-08-04T15:23:32;0.20;;;0.20;;
23262;SDS011;11800;49.830;9.922;2022-08-04T15:26:00;0.20;;;0.20;;
23262;SDS011;11800;49.830;9.922;2022-08-04T15:28:27;0.20;;;0.20;;
23262;SDS011;11800;49.830;9.922;2022-08-04T15:30:54;0.20;;;0.20;;
23262;SDS011;11800;49.830;9.922;2022-08-04T15:33:20;0.20;;;0.20;;
23262;SDS011;11800;49.830;9.922;2022-08-04T15:35:49;0.20;;;0.20;;
23262;SDS011;11800;49.830;9.922;2022-08-04T15:38:26;0.10;;;0.10;;
23262;SDS011;11800;49.830;9.922;2022-08-04T15:40:56;0.20;;;0.20;;
23262;SDS011;11800;49.830;9.922;2022-08-04T15:46:03;0.10;;;0.10;;
23262;SDS011;11800;49.830;9.922;2022-08-04T15:48:29;0.10;;;0.10;;
23262;SDS011;11800;49.830;9.922;2022-08-04T15:53:23;0.20;;;0.20;;
23262;SDS011;11800;49.830;9.922;2022-08-04T15:55:49;0.20;;;0.20;;
23262;SDS011;11800;49.830;9.922;2022-08-04T15:58:17;0.10;;;0.10;;
23262;SDS011;11800;49.830;9.922;2022-08-04T16:16:27;0.10;;;0.10;;
23262;SDS011;11800;49.830;9.922;2022-08-04T16:18:53;0.20;;;0.20;;
23262;SDS011;11800;49.830;9.922;2022-08-04T16:21:21;0.10;;;0.10;;
23262;SDS011;11800;49.830;9.922;2022-08-04T16:23:54;0.20;;;0.20;;
23262;SDS011;11800;49.830;9.922;2022-08-04T16:29:03;0.20;;;0.20;;
23262;SDS011;11800;49.830;9.922;2022-08-04T16:31:29;0.10;;;0.10;;
23262;SDS011;11800;49.830;9.922;2022-08-04T16:33:58;0.10;;;0.10;;
23262;SDS011;11800;49.830;9.922;2022-08-04T16:36:59;0.20;;;0.20;;
23262;SDS011;11800;49.830;9.922;2022-08-04T16:39:17;0.10;;;0.10;;
23262;SDS011;11800;49.830;9.922;2022-08-04T16:41:43;0.10;;;0.10;;
23262;SDS011;11800;49.830;9.922;2022-08-04T16:47:00;0.10;;;0.10;;
23262;SDS011;11800;49.830;9.922;2022-08-04T16:49:28;0.10;;;0.10;;
23262;SDS011;11800;49.830;9.922;2022-08-04T16:51:59;0.10;;;0.10;;
23262;SDS011;11800;49.830;9.922;2022-08-04T16:54:28;0.10;;;0.10;;
23262;SDS011;11800;49.830;9.922;2022-08-04T16:56:54;0.20;;;0.20;;
23262;SDS011;11800;49.830;9.922;2022-08-04T16:59:20;0.10;;;0.10;;
23262;SDS011;11800;49.830;9.922;2022-08-04T17:01:47;0.10;;;0.10;;
23262;SDS011;11800;49.830;9.922;2022-08-04T17:04:14;0.10;;;0.10;;
23262;SDS011;11800;49.830;9.922;2022-08-04T17:06:42;0.20;;;0.20;;
23262;SDS011;11800;49.830;9.922;2022-08-04T17:09:15;0.10;;;0.10;;
23262;SDS011;11800;49.830;9.922;2022-08-04T17:11:42;0.10;;;0.10;;
23262;SDS011;11800;49.830;9.922;2022-08-04T17:14:08;0.10;;;0.10;;
23262;SDS011;11800;49.830;9.922;2022-08-04T17:16:38;0.10;;;0.10;;
23262;SDS011;11800;49.830;9.922;2022-08-04T17:19:05;0.10;;;0.10;;
23262;SDS011;11800;49.830;9.922;2022-08-04T17:21:33;0.17;;;0.17;;
23262;SDS011;11800;49.830;9.922;2022-08-04T17:24:00;0.10;;;0.10;;
23262;SDS011;11800;49.830;9.922;2022-08-04T17:26:27;0.10;;;0.10;;
23262;SDS011;11800;49.830;9.922;2022-08-04T17:28:54;0.10;;;0.10;;
23262;SDS011;11800;49.830;9.922;2022-08-04T17:31:20;0.20;;;0.20;;
23262;SDS011;11800;49.830;9.922;2022-08-04T17:33:51;0.10;;;0.10;;
23262;SDS011;11800;49.830;9.922;2022-08-04T17:36:17;0.10;;;0.10;;
23262;SDS011;11800;49.830;9.922;2022-08-04T17:38:48;0.10;;;0.10;;
23262;SDS011;11800;49.830;9.922;2022-08-04T17:41:18;0.10;;;0.10;;
23262;SDS011;11800;49.830;9.922;2022-08-04T17:43:50;0.10;;;0.10;;
23262;SDS011;11800;49.830;9.922;2022-08-04T17:46:21;0.10;;;0.10;;
23262;SDS011;11800;49.830;9.922;2022-08-04T17:51:32;0.10;;;0.10;;
23262;SDS011;11800;49.830;9.922;2022-08-04T17:53:59;0.20;;;0.20;;
23262;SDS011;11800;49.830;9.922;2022-08-04T17:59:16;0.10;;;0.10;;
23262;SDS011;11800;49.830;9.922;2022-08-04T18:01:50;0.10;;;0.10;;
23262;SDS011;11800;49.830;9.922;2022-08-04T18:04:30;0.10;;;0.10;;
23262;SDS011;11800;49.830;9.922;2022-08-04T18:07:01;0.10;;;0.10;;
23262;SDS011;11800;49.830;9.922;2022-08-04T18:09:30;0.10;;;0.10;;
23262;SDS011;11800;49.830;9.922;2022-08-04T18:12:03;0.10;;;0.10;;
23262;SDS011;11800;49.830;9.922;2022-08-04T18:14:43;0.10;;;0.10;;
23262;SDS011;11800;49.830;9.922;2022-08-04T18:17:09;0.10;;;0.10;;
23262;SDS011;11800;49.830;9.922;2022-08-04T18:19:35;0.10;;;0.10;;
23262;SDS011;11800;49.830;9.922;2022-08-04T18:22:02;0.10;;;0.10;;
23262;SDS011;11800;49.830;9.922;2022-08-04T18:24:29;0.10;;;0.10;;
23262;SDS011;11800;49.830;9.922;2022-08-04T18:26:55;0.10;;;0.10;;
23262;SDS011;11800;49.830;9.922;2022-08-04T18:29:21;0.10;;;0.10;;
23262;SDS011;11800;49.830;9.922;2022-08-04T18:31:48;0.10;;;0.10;;
23262;SDS011;11800;49.830;9.922;2022-08-04T18:34:14;0.10;;;0.10;;
23262;SDS011;11800;49.830;9.922;2022-08-04T18:36:40;0.10;;;0.10;;
23262;SDS011;11800;49.830;9.922;2022-08-04T18:39:08;0.10;;;0.10;;
23262;SDS011;11800;49.830;9.922;2022-08-04T18:41:34;0.10;;;0.10;;
23262;SDS011;11800;49.830;9.922;2022-08-04T18:44:00;0.10;;;0.10;;
23262;SDS011;11800;49.830;9.922;2022-08-04T18:46:27;0.10;;;0.10;;
23262;SDS011;11800;49.830;9.922;2022-08-04T18:48:53;0.10;;;0.10;;
23262;SDS011;11800;49.830;9.922;2022-08-04T18:51:20;0.10;;;0.10;;
23262;SDS011;11800;49.830;9.922;2022-08-04T18:53:46;0.10;;;0.10;;
23262;SDS011;11800;49.830;9.922;2022-08-04T18:56:13;0.10;;;0.10;;
23262;SDS011;11800;49.830;9.922;2022-08-04T18:58:39;0.10;;;0.10;;
23262;SDS011;11800;49.830;9.922;2022-08-04T19:01:05;0.10;;;0.10;;
23262;SDS011;11800;49.830;9.922;2022-08-04T19:03:32;0.10;;;0.10;;
23262;SDS011;11800;49.830;9.922;2022-08-04T19:05:59;0.10;;;0.10;;
23262;SDS011;11800;49.830;9.922;2022-08-04T19:08:26;0.00;;;0.00;;
23262;SDS011;11800;49.830;9.922;2022-08-04T19:10:52;0.10;;;0.10;;
23262;SDS011;11800;49.830;9.922;2022-08-04T19:13:18;0.10;;;0.10;;
23262;SDS011;11800;49.830;9.922;2022-08-04T19:15:44;0.10;;;0.10;;
23262;SDS011;11800;49.830;9.922;2022-08-04T19:18:10;0.10;;;0.10;;
23262;SDS011;11800;49.830;9.922;2022-08-04T19:20:36;0.00;;;0.00;;
23262;SDS011;11800;49.830;9.922;2022-08-04T19:23:02;0.10;;;0.10;;
23262;SDS011;11800;49.830;9.922;2022-08-04T19:25:29;0.10;;;0.10;;
23262;SDS011;11800;49.830;9.922;2022-08-04T19:27:55;0.00;;;0.00;;
23262;SDS011;11800;49.830;9.922;2022-08-04T19:30:21;0.00;;;0.00;;
23262;SDS011;11800;49.830;9.922;2022-08-04T19:32:47;0.10;;;0.10;;
23262;SDS011;11800;49.830;9.922;2022-08-04T19:35:13;0.00;;;0.00;;
23262;SDS011;11800;49.830;9.922;2022-08-04T19:37:39;0.08;;;0.08;;
23262;SDS011;11800;49.830;9.922;2022-08-04T19:40:07;0.05;;;0.05;;
23262;SDS011;11800;49.830;9.922;2022-08-04T19:42:33;0.10;;;0.10;;
23262;SDS011;11800;49.830;9.922;2022-08-04T19:44:59;0.10;;;0.10;;